Santa Rita Park, California
Current Conditions -  °F | °C
As of 9:53 PM on Wednesday 26 Nov 2014 (Local Time) from KMCE Reporting Station
Haze Haze  
Wind Chill: 47°   Ceiling: Unl
Heat Index: 49°   Visibility: 4mi
Dew Point: 43°   Wind: 5mph
Humidity: 80%   Direction: 80°E
Pressure: 30.23"   Gusts: NA
Location:  37.05°N, 120.6°W
Report Text: KMCE 270553Z AUTO 08004KT 4SM HZ CLR 09/06 A3023 RMK AO2 SLP237 T00940061 10194 20094 51005
Loading
Personal Weather Stations






























Interactive Weather Map New forecast layout! Learn more

10-Day Weather Forecast

Advertisements
Track Severe Weather on mobile